This is the latest recevied weather packets stored in our database for station/object RV1CJ-14. If no packets are shown the sender has not sent any weather packets the latest 10 day(s).
| Time | Temp. | Humidity | Pressure | Rain* | Wind** | Luminosity | Snow |
|---|---|---|---|---|---|---|---|
| 1777727403 | 16.11° C | 62% | 1006.7 hPa | 0 mm | - | 32 W/m² | - |
| 1777726803 | 15.56° C | 62% | 1006.8 hPa | 0 mm | - | 33 W/m² | - |
| 1777725603 | 14.44° C | 65% | 1007 hPa | 0 mm | - | 35 W/m² | - |
| 1777725003 | 13.89° C | 66% | 1007.2 hPa | 0 mm | - | 37 W/m² | - |
| 1777724403 | 13.89° C | 67% | 1007.2 hPa | 0 mm | - | 37 W/m² | - |
| 1777723803 | 13.33° C | 68% | 1007.2 hPa | 0 mm | - | 39 W/m² | - |
| 1777722003 | 15° C | 61% | 1007.3 hPa | 0 mm | - | 40 W/m² | - |
| 1777721403 | 16.67° C | 58% | 1007.4 hPa | 0 mm | - | 42 W/m² | - |
| 1777720803 | 18.33° C | 55% | 1007.1 hPa | 0 mm | - | 42 W/m² | - |
| 1777720203 | 18.89° C | 54% | 1007 hPa | 0 mm | - | 44 W/m² | - |
| 1777719603 | 18.89° C | 55% | 1007 hPa | 0 mm | - | 46 W/m² | - |
| 1777719003 | 19.44° C | 54% | 1007.1 hPa | 0 mm | - | 47 W/m² | - |
| 1777718403 | 19.44° C | 53% | 1007.2 hPa | 0 mm | - | 51 W/m² | - |
| 1777717803 | 19.44° C | 52% | 1007.2 hPa | 0 mm | - | 58 W/m² | - |
| 1777717203 | 20° C | 52% | 1007.2 hPa | 0 mm | - | 62 W/m² | - |
| 1777716603 | 20° C | 52% | 1007.3 hPa | 0 mm | - | 56 W/m² | - |
| 1777716003 | 20° C | 51% | 1007.4 hPa | 0 mm | - | 56 W/m² | - |
| 1777715403 | 20° C | 51% | 1007.4 hPa | 0 mm | - | 663 W/m² | - |
| 1777714803 | 19.44° C | 51% | 1007.4 hPa | 0 mm | - | 714 W/m² | - |
| 1777714203 | 19.44° C | 51% | 1007.5 hPa | 0 mm | - | 647 W/m² | - |
| 1777713603 | 19.44° C | 51% | 1007.7 hPa | 0 mm | - | 756 W/m² | - |
| 1777713003 | 19.44° C | 52% | 1007.7 hPa | 0 mm | - | 754 W/m² | - |
| 1777712403 | 18.89° C | 52% | 1007.8 hPa | 0 mm | - | 686 W/m² | - |
| 1777711803 | 18.33° C | 52% | 1007.9 hPa | 0 mm | - | 745 W/m² | - |
| 1777711203 | 18.89° C | 53% | 1008 hPa | 0 mm | - | 751 W/m² | - |
* Rain latest hour (hover to see other rain measurements)
** Current wind speed in m/s (hover to see current wind gust speed)